sensor_id;sensor_type;location;lat;lon;timestamp;P1;durP1;ratioP1;P2;durP2;ratioP2
56073;SDS011;41950;55.840;37.442;2023-12-04T00:00:03;4.93;;;3.05;;
56073;SDS011;41950;55.840;37.442;2023-12-04T00:02:33;6.05;;;3.35;;
56073;SDS011;41950;55.840;37.442;2023-12-04T00:05:01;6.43;;;3.97;;
56073;SDS011;41950;55.840;37.442;2023-12-04T00:07:30;8.23;;;4.05;;
56073;SDS011;41950;55.840;37.442;2023-12-04T00:09:56;6.32;;;2.78;;
56073;SDS011;41950;55.840;37.442;2023-12-04T00:12:24;6.50;;;3.53;;
56073;SDS011;41950;55.840;37.442;2023-12-04T00:14:49;7.25;;;4.20;;
56073;SDS011;41950;55.840;37.442;2023-12-04T00:17:20;5.78;;;3.45;;
56073;SDS011;41950;55.840;37.442;2023-12-04T00:19:46;6.65;;;4.28;;
56073;SDS011;41950;55.840;37.442;2023-12-04T00:22:15;6.90;;;4.38;;
56073;SDS011;41950;55.840;37.442;2023-12-04T00:24:41;6.75;;;3.92;;
56073;SDS011;41950;55.840;37.442;2023-12-04T00:27:07;7.93;;;4.50;;
56073;SDS011;41950;55.840;37.442;2023-12-04T00:29:38;6.68;;;4.03;;
56073;SDS011;41950;55.840;37.442;2023-12-04T00:32:06;7.75;;;3.17;;
56073;SDS011;41950;55.840;37.442;2023-12-04T00:34:37;7.90;;;4.50;;
56073;SDS011;41950;55.840;37.442;2023-12-04T00:37:06;5.10;;;2.63;;
56073;SDS011;41950;55.840;37.442;2023-12-04T00:39:32;8.52;;;4.90;;
56073;SDS011;41950;55.840;37.442;2023-12-04T00:42:01;8.73;;;4.75;;
56073;SDS011;41950;55.840;37.442;2023-12-04T00:44:27;9.18;;;4.97;;
56073;SDS011;41950;55.840;37.442;2023-12-04T00:46:53;7.20;;;4.50;;
56073;SDS011;41950;55.840;37.442;2023-12-04T00:49:29;7.47;;;4.60;;
56073;SDS011;41950;55.840;37.442;2023-12-04T00:51:55;7.07;;;4.05;;
56073;SDS011;41950;55.840;37.442;2023-12-04T00:54:23;7.82;;;4.63;;
56073;SDS011;41950;55.840;37.442;2023-12-04T00:57:00;7.90;;;5.05;;
56073;SDS011;41950;55.840;37.442;2023-12-04T00:59:26;7.53;;;4.55;;
56073;SDS011;41950;55.840;37.442;2023-12-04T01:01:54;7.75;;;4.93;;
56073;SDS011;41950;55.840;37.442;2023-12-04T01:04:23;8.13;;;4.68;;
56073;SDS011;41950;55.840;37.442;2023-12-04T01:06:49;8.95;;;5.47;;
56073;SDS011;41950;55.840;37.442;2023-12-04T01:09:17;8.18;;;4.82;;
56073;SDS011;41950;55.840;37.442;2023-12-04T01:11:55;8.05;;;5.05;;
56073;SDS011;41950;55.840;37.442;2023-12-04T01:14:24;7.95;;;5.15;;
56073;SDS011;41950;55.840;37.442;2023-12-04T01:16:52;8.80;;;4.50;;
56073;SDS011;41950;55.840;37.442;2023-12-04T01:19:21;7.95;;;4.78;;
56073;SDS011;41950;55.840;37.442;2023-12-04T01:21:47;4.20;;;2.08;;
56073;SDS011;41950;55.840;37.442;2023-12-04T01:24:13;8.25;;;4.93;;
56073;SDS011;41950;55.840;37.442;2023-12-04T01:26:47;8.48;;;5.15;;
56073;SDS011;41950;55.840;37.442;2023-12-04T01:29:13;8.52;;;4.50;;
56073;SDS011;41950;55.840;37.442;2023-12-04T01:31:39;7.97;;;5.07;;
56073;SDS011;41950;55.840;37.442;2023-12-04T01:34:14;8.40;;;5.03;;
56073;SDS011;41950;55.840;37.442;2023-12-04T01:36:40;8.07;;;5.00;;
56073;SDS011;41950;55.840;37.442;2023-12-04T01:39:07;7.18;;;4.03;;
56073;SDS011;41950;55.840;37.442;2023-12-04T01:41:33;8.02;;;4.35;;
56073;SDS011;41950;55.840;37.442;2023-12-04T01:44:02;7.43;;;4.30;;
56073;SDS011;41950;55.840;37.442;2023-12-04T01:46:28;3.95;;;2.10;;
56073;SDS011;41950;55.840;37.442;2023-12-04T01:48:58;8.38;;;4.03;;
56073;SDS011;41950;55.840;37.442;2023-12-04T01:51:24;8.73;;;4.28;;
56073;SDS011;41950;55.840;37.442;2023-12-04T01:53:55;7.63;;;4.28;;
56073;SDS011;41950;55.840;37.442;2023-12-04T01:56:26;8.50;;;4.93;;
56073;SDS011;41950;55.840;37.442;2023-12-04T01:58:52;8.02;;;4.53;;
56073;SDS011;41950;55.840;37.442;2023-12-04T02:01:21;7.88;;;4.55;;
56073;SDS011;41950;55.840;37.442;2023-12-04T02:03:51;9.70;;;5.03;;
56073;SDS011;41950;55.840;37.442;2023-12-04T02:06:17;8.27;;;4.72;;
56073;SDS011;41950;55.840;37.442;2023-12-04T02:08:46;5.40;;;3.00;;
56073;SDS011;41950;55.840;37.442;2023-12-04T02:11:14;7.95;;;4.72;;
56073;SDS011;41950;55.840;37.442;2023-12-04T02:13:43;6.88;;;3.40;;
56073;SDS011;41950;55.840;37.442;2023-12-04T02:16:12;6.10;;;2.95;;
56073;SDS011;41950;55.840;37.442;2023-12-04T02:18:49;8.95;;;5.05;;
56073;SDS011;41950;55.840;37.442;2023-12-04T02:21:21;8.73;;;4.90;;
56073;SDS011;41950;55.840;37.442;2023-12-04T02:23:52;4.53;;;2.42;;
56073;SDS011;41950;55.840;37.442;2023-12-04T02:26:28;8.82;;;4.88;;
56073;SDS011;41950;55.840;37.442;2023-12-04T02:28:58;8.75;;;4.57;;
56073;SDS011;41950;55.840;37.442;2023-12-04T02:31:26;7.63;;;4.47;;
56073;SDS011;41950;55.840;37.442;2023-12-04T02:34:00;6.95;;;3.58;;
56073;SDS011;41950;55.840;37.442;2023-12-04T02:36:36;8.07;;;5.25;;
56073;SDS011;41950;55.840;37.442;2023-12-04T02:39:03;6.55;;;3.47;;
56073;SDS011;41950;55.840;37.442;2023-12-04T02:41:30;8.10;;;5.07;;
56073;SDS011;41950;55.840;37.442;2023-12-04T02:44:06;8.07;;;5.03;;
56073;SDS011;41950;55.840;37.442;2023-12-04T02:46:34;11.32;;;5.68;;
56073;SDS011;41950;55.840;37.442;2023-12-04T02:49:08;8.02;;;4.90;;
56073;SDS011;41950;55.840;37.442;2023-12-04T02:51:37;10.10;;;6.00;;
56073;SDS011;41950;55.840;37.442;2023-12-04T02:54:08;9.35;;;5.93;;
56073;SDS011;41950;55.840;37.442;2023-12-04T02:56:34;5.32;;;2.72;;
56073;SDS011;41950;55.840;37.442;2023-12-04T02:59:00;9.40;;;5.40;;
56073;SDS011;41950;55.840;37.442;2023-12-04T03:01:33;10.50;;;6.47;;
56073;SDS011;41950;55.840;37.442;2023-12-04T03:04:06;9.52;;;5.03;;
56073;SDS011;41950;55.840;37.442;2023-12-04T03:06:37;5.18;;;2.45;;
56073;SDS011;41950;55.840;37.442;2023-12-04T03:09:04;9.35;;;5.78;;
56073;SDS011;41950;55.840;37.442;2023-12-04T03:11:32;8.50;;;5.07;;
56073;SDS011;41950;55.840;37.442;2023-12-04T03:13:59;8.27;;;5.50;;
56073;SDS011;41950;55.840;37.442;2023-12-04T03:16:34;8.13;;;4.60;;
56073;SDS011;41950;55.840;37.442;2023-12-04T03:19:03;9.35;;;5.55;;
56073;SDS011;41950;55.840;37.442;2023-12-04T03:21:32;7.25;;;4.25;;
56073;SDS011;41950;55.840;37.442;2023-12-04T03:24:03;9.52;;;6.00;;
56073;SDS011;41950;55.840;37.442;2023-12-04T03:26:32;7.95;;;5.05;;
56073;SDS011;41950;55.840;37.442;2023-12-04T03:29:00;8.55;;;5.10;;
56073;SDS011;41950;55.840;37.442;2023-12-04T03:31:26;6.93;;;3.55;;
56073;SDS011;41950;55.840;37.442;2023-12-04T03:34:04;9.52;;;5.45;;
56073;SDS011;41950;55.840;37.442;2023-12-04T03:36:46;9.80;;;5.60;;
56073;SDS011;41950;55.840;37.442;2023-12-04T03:39:15;10.18;;;5.30;;
56073;SDS011;41950;55.840;37.442;2023-12-04T03:41:41;10.32;;;5.20;;
56073;SDS011;41950;55.840;37.442;2023-12-04T03:44:22;8.63;;;5.47;;
56073;SDS011;41950;55.840;37.442;2023-12-04T03:46:52;8.75;;;5.18;;
56073;SDS011;41950;55.840;37.442;2023-12-04T03:49:21;9.82;;;5.07;;
56073;SDS011;41950;55.840;37.442;2023-12-04T03:51:49;9.27;;;5.47;;
56073;SDS011;41950;55.840;37.442;2023-12-04T03:54:15;11.02;;;5.20;;
56073;SDS011;41950;55.840;37.442;2023-12-04T03:56:43;8.80;;;5.95;;
56073;SDS011;41950;55.840;37.442;2023-12-04T03:59:10;9.68;;;5.32;;
56073;SDS011;41950;55.840;37.442;2023-12-04T04:01:36;9.35;;;5.55;;
56073;SDS011;41950;55.840;37.442;2023-12-04T04:04:04;5.05;;;2.85;;
56073;SDS011;41950;55.840;37.442;2023-12-04T04:06:47;8.77;;;5.15;;
56073;SDS011;41950;55.840;37.442;2023-12-04T04:09:31;10.65;;;5.75;;
56073;SDS011;41950;55.840;37.442;2023-12-04T04:12:00;9.40;;;5.13;;
56073;SDS011;41950;55.840;37.442;2023-12-04T04:14:31;9.07;;;4.75;;
56073;SDS011;41950;55.840;37.442;2023-12-04T04:16:58;10.07;;;4.07;;
56073;SDS011;41950;55.840;37.442;2023-12-04T04:19:24;8.77;;;5.28;;
56073;SDS011;41950;55.840;37.442;2023-12-04T04:21:50;9.45;;;6.05;;
56073;SDS011;41950;55.840;37.442;2023-12-04T04:24:16;9.60;;;6.05;;
56073;SDS011;41950;55.840;37.442;2023-12-04T04:26:42;9.63;;;5.82;;
56073;SDS011;41950;55.840;37.442;2023-12-04T04:29:12;10.23;;;6.18;;
56073;SDS011;41950;55.840;37.442;2023-12-04T04:31:38;9.30;;;5.47;;
56073;SDS011;41950;55.840;37.442;2023-12-04T04:34:09;9.55;;;5.60;;
56073;SDS011;41950;55.840;37.442;2023-12-04T04:36:38;4.05;;;2.35;;
56073;SDS011;41950;55.840;37.442;2023-12-04T04:39:07;6.95;;;3.80;;
56073;SDS011;41950;55.840;37.442;2023-12-04T04:41:42;11.35;;;6.60;;
56073;SDS011;41950;55.840;37.442;2023-12-04T04:44:17;9.90;;;5.78;;
56073;SDS011;41950;55.840;37.442;2023-12-04T04:47:04;7.75;;;4.40;;
56073;SDS011;41950;55.840;37.442;2023-12-04T04:49:33;10.20;;;6.47;;
56073;SDS011;41950;55.840;37.442;2023-12-04T04:52:02;12.07;;;7.18;;
56073;SDS011;41950;55.840;37.442;2023-12-04T04:54:33;13.13;;;7.25;;
56073;SDS011;41950;55.840;37.442;2023-12-04T04:57:07;7.18;;;4.05;;
56073;SDS011;41950;55.840;37.442;2023-12-04T04:59:50;12.13;;;6.57;;
56073;SDS011;41950;55.840;37.442;2023-12-04T05:02:26;9.88;;;6.80;;
56073;SDS011;41950;55.840;37.442;2023-12-04T05:04:52;11.38;;;6.28;;
56073;SDS011;41950;55.840;37.442;2023-12-04T05:07:25;8.10;;;3.95;;
56073;SDS011;41950;55.840;37.442;2023-12-04T05:09:54;10.93;;;6.90;;
56073;SDS011;41950;55.840;37.442;2023-12-04T05:12:22;6.57;;;3.80;;
56073;SDS011;41950;55.840;37.442;2023-12-04T05:14:55;9.18;;;4.57;;
56073;SDS011;41950;55.840;37.442;2023-12-04T05:17:28;12.43;;;7.35;;
56073;SDS011;41950;55.840;37.442;2023-12-04T05:20:05;6.40;;;3.70;;
56073;SDS011;41950;55.840;37.442;2023-12-04T05:22:43;13.40;;;7.57;;
56073;SDS011;41950;55.840;37.442;2023-12-04T05:25:16;12.40;;;6.45;;
56073;SDS011;41950;55.840;37.442;2023-12-04T05:27:42;10.75;;;5.15;;
56073;SDS011;41950;55.840;37.442;2023-12-04T05:30:13;6.28;;;2.85;;
56073;SDS011;41950;55.840;37.442;2023-12-04T05:32:41;7.63;;;5.05;;
56073;SDS011;41950;55.840;37.442;2023-12-04T05:35:14;10.55;;;6.15;;
56073;SDS011;41950;55.840;37.442;2023-12-04T05:37:43;16.65;;;8.63;;
56073;SDS011;41950;55.840;37.442;2023-12-04T05:40:15;7.20;;;4.53;;
56073;SDS011;41950;55.840;37.442;2023-12-04T05:42:46;10.80;;;5.85;;
56073;SDS011;41950;55.840;37.442;2023-12-04T05:45:36;11.05;;;5.03;;
56073;SDS011;41950;55.840;37.442;2023-12-04T05:48:02;12.55;;;7.78;;
56073;SDS011;41950;55.840;37.442;2023-12-04T05:50:30;11.77;;;5.25;;
56073;SDS011;41950;55.840;37.442;2023-12-04T05:52:59;8.40;;;4.63;;
56073;SDS011;41950;55.840;37.442;2023-12-04T05:55:27;10.02;;;6.15;;
56073;SDS011;41950;55.840;37.442;2023-12-04T05:58:04;11.57;;;5.97;;
56073;SDS011;41950;55.840;37.442;2023-12-04T06:00:41;13.93;;;7.97;;
56073;SDS011;41950;55.840;37.442;2023-12-04T06:03:12;10.90;;;6.70;;
56073;SDS011;41950;55.840;37.442;2023-12-04T06:05:41;10.15;;;6.35;;
56073;SDS011;41950;55.840;37.442;2023-12-04T06:08:12;8.93;;;3.42;;
56073;SDS011;41950;55.840;37.442;2023-12-04T06:10:38;14.38;;;8.68;;
56073;SDS011;41950;55.840;37.442;2023-12-04T06:13:06;10.55;;;5.05;;
56073;SDS011;41950;55.840;37.442;2023-12-04T06:15:34;14.30;;;7.60;;
56073;SDS011;41950;55.840;37.442;2023-12-04T06:18:02;11.20;;;6.53;;
56073;SDS011;41950;55.840;37.442;2023-12-04T06:20:29;7.63;;;3.72;;
56073;SDS011;41950;55.840;37.442;2023-12-04T06:22:58;11.35;;;6.05;;
56073;SDS011;41950;55.840;37.442;2023-12-04T06:25:29;11.65;;;7.47;;
56073;SDS011;41950;55.840;37.442;2023-12-04T06:27:59;11.25;;;5.85;;
56073;SDS011;41950;55.840;37.442;2023-12-04T06:30:34;10.43;;;5.32;;
56073;SDS011;41950;55.840;37.442;2023-12-04T06:33:02;10.88;;;6.38;;
56073;SDS011;41950;55.840;37.442;2023-12-04T06:35:28;9.25;;;5.13;;
56073;SDS011;41950;55.840;37.442;2023-12-04T06:37:54;11.63;;;6.10;;
56073;SDS011;41950;55.840;37.442;2023-12-04T06:40:21;5.78;;;3.20;;
56073;SDS011;41950;55.840;37.442;2023-12-04T06:42:50;12.32;;;6.63;;
56073;SDS011;41950;55.840;37.442;2023-12-04T06:45:21;11.57;;;6.68;;
56073;SDS011;41950;55.840;37.442;2023-12-04T06:47:48;10.90;;;4.72;;
56073;SDS011;41950;55.840;37.442;2023-12-04T06:50:18;12.65;;;7.47;;
56073;SDS011;41950;55.840;37.442;2023-12-04T06:52:46;11.80;;;6.78;;
56073;SDS011;41950;55.840;37.442;2023-12-04T06:55:12;11.35;;;6.47;;
56073;SDS011;41950;55.840;37.442;2023-12-04T06:57:40;11.98;;;7.20;;
56073;SDS011;41950;55.840;37.442;2023-12-04T07:00:06;12.15;;;7.32;;
56073;SDS011;41950;55.840;37.442;2023-12-04T07:02:33;11.27;;;6.65;;
56073;SDS011;41950;55.840;37.442;2023-12-04T07:05:02;11.90;;;6.28;;
56073;SDS011;41950;55.840;37.442;2023-12-04T07:07:28;11.07;;;6.82;;
56073;SDS011;41950;55.840;37.442;2023-12-04T07:09:54;9.50;;;5.15;;
56073;SDS011;41950;55.840;37.442;2023-12-04T07:12:20;14.13;;;7.85;;
56073;SDS011;41950;55.840;37.442;2023-12-04T07:14:47;9.75;;;6.28;;
56073;SDS011;41950;55.840;37.442;2023-12-04T07:17:12;13.48;;;7.28;;
56073;SDS011;41950;55.840;37.442;2023-12-04T07:19:40;11.23;;;7.25;;
56073;SDS011;41950;55.840;37.442;2023-12-04T07:22:07;10.98;;;7.20;;
56073;SDS011;41950;55.840;37.442;2023-12-04T07:24:32;7.82;;;4.90;;
56073;SDS011;41950;55.840;37.442;2023-12-04T07:26:58;5.68;;;2.88;;
56073;SDS011;41950;55.840;37.442;2023-12-04T07:29:25;11.68;;;7.28;;
56073;SDS011;41950;55.840;37.442;2023-12-04T07:31:54;11.50;;;7.40;;
56073;SDS011;41950;55.840;37.442;2023-12-04T07:34:19;13.80;;;8.93;;
56073;SDS011;41950;55.840;37.442;2023-12-04T07:36:45;11.35;;;6.75;;
56073;SDS011;41950;55.840;37.442;2023-12-04T07:39:11;12.45;;;7.75;;
56073;SDS011;41950;55.840;37.442;2023-12-04T07:41:37;8.25;;;4.57;;
56073;SDS011;41950;55.840;37.442;2023-12-04T07:44:03;9.48;;;5.35;;
56073;SDS011;41950;55.840;37.442;2023-12-04T07:46:29;7.80;;;3.75;;
56073;SDS011;41950;55.840;37.442;2023-12-04T07:48:55;11.82;;;6.45;;
56073;SDS011;41950;55.840;37.442;2023-12-04T07:51:21;10.68;;;5.38;;
56073;SDS011;41950;55.840;37.442;2023-12-04T07:53:46;12.90;;;7.72;;
56073;SDS011;41950;55.840;37.442;2023-12-04T07:56:13;7.95;;;4.47;;
56073;SDS011;41950;55.840;37.442;2023-12-04T07:58:39;8.07;;;4.05;;
56073;SDS011;41950;55.840;37.442;2023-12-04T08:01:05;10.85;;;6.28;;
56073;SDS011;41950;55.840;37.442;2023-12-04T08:03:31;13.68;;;6.95;;
56073;SDS011;41950;55.840;37.442;2023-12-04T08:05:57;9.57;;;4.70;;
56073;SDS011;41950;55.840;37.442;2023-12-04T08:08:23;10.93;;;6.78;;
56073;SDS011;41950;55.840;37.442;2023-12-04T08:10:50;6.82;;;4.20;;
56073;SDS011;41950;55.840;37.442;2023-12-04T08:13:15;14.32;;;7.45;;
56073;SDS011;41950;55.840;37.442;2023-12-04T08:15:42;11.88;;;6.97;;
56073;SDS011;41950;55.840;37.442;2023-12-04T08:18:08;8.88;;;5.18;;
56073;SDS011;41950;55.840;37.442;2023-12-04T08:20:35;15.05;;;8.50;;
56073;SDS011;41950;55.840;37.442;2023-12-04T08:23:01;10.52;;;5.88;;
56073;SDS011;41950;55.840;37.442;2023-12-04T08:25:28;12.40;;;5.68;;
56073;SDS011;41950;55.840;37.442;2023-12-04T08:27:54;13.43;;;5.47;;
56073;SDS011;41950;55.840;37.442;2023-12-04T08:30:19;9.93;;;5.03;;
56073;SDS011;41950;55.840;37.442;2023-12-04T08:32:45;12.75;;;7.88;;
56073;SDS011;41950;55.840;37.442;2023-12-04T08:35:12;13.52;;;7.72;;
56073;SDS011;41950;55.840;37.442;2023-12-04T08:37:38;11.68;;;6.78;;
56073;SDS011;41950;55.840;37.442;2023-12-04T08:40:05;13.00;;;7.03;;
56073;SDS011;41950;55.840;37.442;2023-12-04T08:42:33;10.75;;;6.43;;
56073;SDS011;41950;55.840;37.442;2023-12-04T08:44:59;11.45;;;6.20;;
56073;SDS011;41950;55.840;37.442;2023-12-04T08:47:25;12.65;;;7.78;;
56073;SDS011;41950;55.840;37.442;2023-12-04T08:49:51;13.50;;;8.30;;
56073;SDS011;41950;55.840;37.442;2023-12-04T08:52:16;12.55;;;7.70;;
56073;SDS011;41950;55.840;37.442;2023-12-04T08:54:42;12.00;;;6.20;;
56073;SDS011;41950;55.840;37.442;2023-12-04T08:57:08;11.75;;;6.72;;
56073;SDS011;41950;55.840;37.442;2023-12-04T08:59:34;13.95;;;8.07;;
56073;SDS011;41950;55.840;37.442;2023-12-04T09:02:03;17.55;;;11.30;;
56073;SDS011;41950;55.840;37.442;2023-12-04T09:04:32;12.40;;;8.35;;
56073;SDS011;41950;55.840;37.442;2023-12-04T09:06:58;14.55;;;8.73;;
56073;SDS011;41950;55.840;37.442;2023-12-04T09:09:24;13.65;;;8.48;;
56073;SDS011;41950;55.840;37.442;2023-12-04T09:11:50;14.18;;;6.80;;
56073;SDS011;41950;55.840;37.442;2023-12-04T09:14:16;13.30;;;8.80;;
56073;SDS011;41950;55.840;37.442;2023-12-04T09:16:42;15.10;;;9.88;;
56073;SDS011;41950;55.840;37.442;2023-12-04T09:19:08;12.52;;;9.07;;
56073;SDS011;41950;55.840;37.442;2023-12-04T09:21:35;12.77;;;6.43;;
56073;SDS011;41950;55.840;37.442;2023-12-04T09:24:01;7.32;;;4.85;;
56073;SDS011;41950;55.840;37.442;2023-12-04T09:26:27;10.65;;;6.75;;
56073;SDS011;41950;55.840;37.442;2023-12-04T09:28:53;8.23;;;4.68;;
56073;SDS011;41950;55.840;37.442;2023-12-04T09:31:22;11.85;;;7.45;;
56073;SDS011;41950;55.840;37.442;2023-12-04T09:33:50;13.55;;;7.97;;
56073;SDS011;41950;55.840;37.442;2023-12-04T09:36:16;14.82;;;8.63;;
56073;SDS011;41950;55.840;37.442;2023-12-04T09:38:42;13.68;;;7.47;;
56073;SDS011;41950;55.840;37.442;2023-12-04T09:41:09;11.90;;;7.40;;
56073;SDS011;41950;55.840;37.442;2023-12-04T09:43:37;15.98;;;8.27;;
56073;SDS011;41950;55.840;37.442;2023-12-04T09:46:03;12.27;;;6.85;;
56073;SDS011;41950;55.840;37.442;2023-12-04T09:48:30;13.48;;;7.45;;
56073;SDS011;41950;55.840;37.442;2023-12-04T09:50:57;12.88;;;7.97;;
56073;SDS011;41950;55.840;37.442;2023-12-04T09:53:23;13.10;;;7.13;;
56073;SDS011;41950;55.840;37.442;2023-12-04T09:55:51;14.70;;;8.98;;
56073;SDS011;41950;55.840;37.442;2023-12-04T09:58:21;8.45;;;4.88;;
56073;SDS011;41950;55.840;37.442;2023-12-04T10:00:52;13.60;;;7.60;;
56073;SDS011;41950;55.840;37.442;2023-12-04T10:03:22;15.13;;;8.75;;
56073;SDS011;41950;55.840;37.442;2023-12-04T10:05:49;14.48;;;8.23;;
56073;SDS011;41950;55.840;37.442;2023-12-04T10:08:14;16.05;;;8.35;;
56073;SDS011;41950;55.840;37.442;2023-12-04T10:10:42;13.07;;;8.27;;
56073;SDS011;41950;55.840;37.442;2023-12-04T10:13:08;14.70;;;8.25;;
56073;SDS011;41950;55.840;37.442;2023-12-04T10:15:34;9.93;;;4.80;;
56073;SDS011;41950;55.840;37.442;2023-12-04T10:18:23;14.57;;;8.32;;
56073;SDS011;41950;55.840;37.442;2023-12-04T10:20:56;14.93;;;8.52;;
56073;SDS011;41950;55.840;37.442;2023-12-04T10:23:22;14.40;;;7.75;;
56073;SDS011;41950;55.840;37.442;2023-12-04T10:26:01;14.55;;;8.10;;
56073;SDS011;41950;55.840;37.442;2023-12-04T10:28:31;14.68;;;8.27;;
56073;SDS011;41950;55.840;37.442;2023-12-04T10:30:57;15.70;;;9.25;;
56073;SDS011;41950;55.840;37.442;2023-12-04T10:33:24;10.02;;;6.35;;
56073;SDS011;41950;55.840;37.442;2023-12-04T10:35:53;16.15;;;9.80;;
56073;SDS011;41950;55.840;37.442;2023-12-04T10:38:22;14.00;;;7.57;;
56073;SDS011;41950;55.840;37.442;2023-12-04T10:40:48;16.05;;;9.05;;
56073;SDS011;41950;55.840;37.442;2023-12-04T10:43:18;15.38;;;9.13;;
56073;SDS011;41950;55.840;37.442;2023-12-04T10:45:46;14.10;;;8.52;;
56073;SDS011;41950;55.840;37.442;2023-12-04T10:48:14;16.48;;;9.88;;
56073;SDS011;41950;55.840;37.442;2023-12-04T10:50:42;16.63;;;8.98;;
56073;SDS011;41950;55.840;37.442;2023-12-04T10:53:10;16.60;;;9.27;;
56073;SDS011;41950;55.840;37.442;2023-12-04T10:55:38;18.65;;;14.93;;
56073;SDS011;41950;55.840;37.442;2023-12-04T10:58:08;17.35;;;11.60;;
56073;SDS011;41950;55.840;37.442;2023-12-04T11:00:43;17.88;;;11.18;;
56073;SDS011;41950;55.840;37.442;2023-12-04T11:03:18;13.65;;;7.72;;
56073;SDS011;41950;55.840;37.442;2023-12-04T11:05:49;12.05;;;7.65;;
56073;SDS011;41950;55.840;37.442;2023-12-04T11:08:19;14.07;;;6.07;;
56073;SDS011;41950;55.840;37.442;2023-12-04T11:10:58;11.25;;;6.93;;
56073;SDS011;41950;55.840;37.442;2023-12-04T11:13:30;14.65;;;8.13;;
56073;SDS011;41950;55.840;37.442;2023-12-04T11:16:12;13.43;;;7.80;;
56073;SDS011;41950;55.840;37.442;2023-12-04T11:18:48;14.80;;;8.68;;
56073;SDS011;41950;55.840;37.442;2023-12-04T11:21:28;11.60;;;6.28;;
56073;SDS011;41950;55.840;37.442;2023-12-04T11:23:57;9.77;;;5.13;;
56073;SDS011;41950;55.840;37.442;2023-12-04T11:26:23;13.70;;;7.65;;
56073;SDS011;41950;55.840;37.442;2023-12-04T11:28:51;15.45;;;8.90;;
56073;SDS011;41950;55.840;37.442;2023-12-04T11:31:18;14.93;;;8.70;;
56073;SDS011;41950;55.840;37.442;2023-12-04T11:33:44;12.15;;;6.38;;
56073;SDS011;41950;55.840;37.442;2023-12-04T11:36:11;15.60;;;8.95;;
56073;SDS011;41950;55.840;37.442;2023-12-04T11:38:38;12.02;;;6.38;;
56073;SDS011;41950;55.840;37.442;2023-12-04T11:41:15;16.27;;;7.80;;
56073;SDS011;41950;55.840;37.442;2023-12-04T11:43:45;13.05;;;8.52;;
56073;SDS011;41950;55.840;37.442;2023-12-04T11:46:24;8.05;;;4.15;;
56073;SDS011;41950;55.840;37.442;2023-12-04T11:48:55;12.80;;;7.97;;
56073;SDS011;41950;55.840;37.442;2023-12-04T11:54:09;17.85;;;9.68;;
56073;SDS011;41950;55.840;37.442;2023-12-04T11:56:35;14.05;;;8.00;;
56073;SDS011;41950;55.840;37.442;2023-12-04T11:59:05;11.98;;;6.47;;
56073;SDS011;41950;55.840;37.442;2023-12-04T12:01:38;14.75;;;8.95;;
56073;SDS011;41950;55.840;37.442;2023-12-04T12:04:07;9.18;;;4.68;;
56073;SDS011;41950;55.840;37.442;2023-12-04T12:06:33;11.32;;;5.57;;
56073;SDS011;41950;55.840;37.442;2023-12-04T12:08:59;11.90;;;6.60;;
56073;SDS011;41950;55.840;37.442;2023-12-04T12:11:25;12.90;;;7.80;;
56073;SDS011;41950;55.840;37.442;2023-12-04T12:13:55;9.15;;;4.57;;
56073;SDS011;41950;55.840;37.442;2023-12-04T12:16:23;11.30;;;6.28;;
56073;SDS011;41950;55.840;37.442;2023-12-04T12:18:50;10.52;;;5.57;;
56073;SDS011;41950;55.840;37.442;2023-12-04T12:21:16;15.27;;;8.18;;
56073;SDS011;41950;55.840;37.442;2023-12-04T12:23:42;11.82;;;6.18;;
56073;SDS011;41950;55.840;37.442;2023-12-04T12:26:09;13.70;;;7.72;;
56073;SDS011;41950;55.840;37.442;2023-12-04T12:28:37;14.50;;;8.27;;
56073;SDS011;41950;55.840;37.442;2023-12-04T12:31:03;9.18;;;5.93;;
56073;SDS011;41950;55.840;37.442;2023-12-04T12:33:29;10.63;;;5.60;;
56073;SDS011;41950;55.840;37.442;2023-12-04T12:35:56;13.18;;;7.22;;
56073;SDS011;41950;55.840;37.442;2023-12-04T12:38:23;13.70;;;8.50;;
56073;SDS011;41950;55.840;37.442;2023-12-04T12:40:50;13.35;;;8.35;;
56073;SDS011;41950;55.840;37.442;2023-12-04T12:43:16;12.65;;;7.28;;
56073;SDS011;41950;55.840;37.442;2023-12-04T12:45:49;13.98;;;7.85;;
56073;SDS011;41950;55.840;37.442;2023-12-04T12:48:15;15.52;;;8.77;;
56073;SDS011;41950;55.840;37.442;2023-12-04T12:50:43;13.15;;;7.35;;
56073;SDS011;41950;55.840;37.442;2023-12-04T12:53:12;16.58;;;8.93;;
56073;SDS011;41950;55.840;37.442;2023-12-04T12:55:38;13.40;;;7.65;;
56073;SDS011;41950;55.840;37.442;2023-12-04T12:58:10;14.77;;;8.23;;
56073;SDS011;41950;55.840;37.442;2023-12-04T13:00:39;13.32;;;7.43;;
56073;SDS011;41950;55.840;37.442;2023-12-04T13:03:14;13.95;;;8.60;;
56073;SDS011;41950;55.840;37.442;2023-12-04T13:05:40;13.98;;;8.15;;
56073;SDS011;41950;55.840;37.442;2023-12-04T13:08:06;13.43;;;8.30;;
56073;SDS011;41950;55.840;37.442;2023-12-04T13:10:32;14.70;;;8.73;;
56073;SDS011;41950;55.840;37.442;2023-12-04T13:12:58;14.27;;;7.90;;
56073;SDS011;41950;55.840;37.442;2023-12-04T13:15:28;12.85;;;7.63;;
56073;SDS011;41950;55.840;37.442;2023-12-04T13:17:54;12.40;;;7.22;;
56073;SDS011;41950;55.840;37.442;2023-12-04T13:20:19;16.48;;;9.88;;
56073;SDS011;41950;55.840;37.442;2023-12-04T13:22:45;15.70;;;9.35;;
56073;SDS011;41950;55.840;37.442;2023-12-04T13:25:11;16.55;;;10.15;;
56073;SDS011;41950;55.840;37.442;2023-12-04T13:27:37;16.58;;;10.23;;
56073;SDS011;41950;55.840;37.442;2023-12-04T13:30:05;16.30;;;7.90;;
56073;SDS011;41950;55.840;37.442;2023-12-04T13:32:31;18.05;;;10.50;;
56073;SDS011;41950;55.840;37.442;2023-12-04T13:34:58;17.00;;;10.18;;
56073;SDS011;41950;55.840;37.442;2023-12-04T13:37:24;16.95;;;10.35;;
56073;SDS011;41950;55.840;37.442;2023-12-04T13:39:52;10.40;;;5.03;;
56073;SDS011;41950;55.840;37.442;2023-12-04T13:42:23;18.20;;;10.68;;
56073;SDS011;41950;55.840;37.442;2023-12-04T13:45:08;19.27;;;9.95;;
56073;SDS011;41950;55.840;37.442;2023-12-04T13:47:35;16.13;;;9.85;;
56073;SDS011;41950;55.840;37.442;2023-12-04T13:50:02;17.23;;;10.27;;
56073;SDS011;41950;55.840;37.442;2023-12-04T13:52:29;17.60;;;10.52;;
56073;SDS011;41950;55.840;37.442;2023-12-04T13:54:59;17.13;;;9.32;;
56073;SDS011;41950;55.840;37.442;2023-12-04T13:57:25;17.98;;;8.95;;
56073;SDS011;41950;55.840;37.442;2023-12-04T14:00:01;16.30;;;7.60;;
56073;SDS011;41950;55.840;37.442;2023-12-04T14:02:31;17.33;;;9.52;;
56073;SDS011;41950;55.840;37.442;2023-12-04T14:04:56;17.00;;;9.38;;
56073;SDS011;41950;55.840;37.442;2023-12-04T14:07:22;16.77;;;9.30;;
56073;SDS011;41950;55.840;37.442;2023-12-04T14:09:50;17.38;;;9.93;;
56073;SDS011;41950;55.840;37.442;2023-12-04T14:12:15;16.88;;;9.27;;
56073;SDS011;41950;55.840;37.442;2023-12-04T14:14:41;15.05;;;8.88;;
56073;SDS011;41950;55.840;37.442;2023-12-04T14:17:10;16.30;;;9.20;;
56073;SDS011;41950;55.840;37.442;2023-12-04T14:19:37;15.85;;;9.73;;
56073;SDS011;41950;55.840;37.442;2023-12-04T14:22:05;17.33;;;10.48;;
56073;SDS011;41950;55.840;37.442;2023-12-04T14:24:31;16.20;;;9.55;;
56073;SDS011;41950;55.840;37.442;2023-12-04T14:26:56;16.70;;;10.10;;
56073;SDS011;41950;55.840;37.442;2023-12-04T14:29:22;17.52;;;9.90;;
56073;SDS011;41950;55.840;37.442;2023-12-04T14:31:48;14.00;;;8.65;;
56073;SDS011;41950;55.840;37.442;2023-12-04T14:34:15;17.52;;;10.35;;
56073;SDS011;41950;55.840;37.442;2023-12-04T14:36:41;18.55;;;11.23;;